Marcos Ribeiro

Scout - Cruzeiro
22 Apr 2027
Thursday
Process

Personality

Adaptability (18) Ambition (2) Controversy (6) Loyalty (7) Pressure (6) Professionalism (13) Sportsmanship (3) Temperament (7)

Profile

Coaching Style Democratic
License Continental C
Determination 6
Man Management 9
Motivating 5
Discipline 8
Job Satisfaction
50%
Fatigue
0%
Role Scout
Wage 65.4K p/w
Contract 14.03.2028

Performance

Behaviour Normal
Training Effectiveness
26%
Player Development
70%
Injury Prevention
70%
Tactical Implementation
65%

Recent Events

Assessed a player now
Attended a recruitment meeting now
Recommended a transfer target now
Assessed a player 7d ago
Assessed a player 7d ago
Assessed a player 7d ago
Assessed a player 7d ago
Assessed a player 7d ago

Currently Monitoring

179
Player Club Status Ability Confidence Watched Last Observed Latest Vote
Gabriel Jesus Barcelona Active 165 / 159 40% 3 21.04.2027 -
Lautaro Martínez Inter Active 167 / 186 40% 1 21.04.2027 -
Fábio Carvalho Brentford Active 146 / 129 40% 1 21.04.2027 -
Alex Robertson Cardiff City Active 114 / 110 40% 1 20.04.2027 -
Cian Ashford Cardiff City Active 120 / 107 40% 1 20.04.2027 -
Juanlu Bournemouth Active 156 / 149 40% 1 20.04.2027 -
Nicolas Jackson Aston Villa Active 147 / 140 40% 1 19.04.2027 -
Dominic Solanke Tottenham Active 156 / 151 40% 1 19.04.2027 -
Morgan Rogers Chelsea Active 156 / 160 40% 1 19.04.2027 -
João Pedro Chelsea Active 162 / 161 40% 2 18.04.2027 -
Igor Jesus Nottingham Forest Active 141 / 125 40% 1 18.04.2027 -
Tammy Abraham Aston Villa Active 135 / 127 40% 1 18.04.2027 -
Adam Wharton Crystal Palace Active 152 / 150 40% 3 17.04.2027 -
Jake O'Brien Everton Active 137 / 143 40% 4 17.04.2027 -
Florentino Luís Ipswich Town Active 151 / 128 40% 2 17.04.2027 -
Levi Colwill Chelsea Active 164 / 164 40% 1 17.04.2027 -
Brennan Johnson Everton Active 148 / 129 40% 1 17.04.2027 -
Jacob Ramsey Newcastle United Active 149 / 138 40% 1 17.04.2027 -
Gianluca Scamacca Atalanta Active 142 / 145 40% 1 17.04.2027 -
Che Adams Torino Active 146 / 145 40% 1 17.04.2027 -
Giacomo Raspadori Atalanta Active 147 / 152 40% 1 17.04.2027 -
Gonzalo Fulham Active 148 / 158 40% 2 16.04.2027 -
Rodrigo Muniz Fulham Active 148 / 143 40% 1 16.04.2027 -
Noah Sadiki Sunderland Active 134 / 138 40% 4 14.04.2027 -
Máximo Perrone Como Active 151 / 135 40% 1 14.04.2027 -
Gustav Isaksen Lazio Active 154 / 133 40% 1 14.04.2027 -
Crysencio Summerville Al-Hilal Active 136 / 151 40% 2 13.04.2027 -
Marcus Holmgren Pedersen Olympiacos Active 145 / 121 40% 2 13.04.2027 -
Cheick Doucouré Crystal Palace Active 145 / 141 40% 2 13.04.2027 -
Rodrigo Zalazar Sporting CP Active 159 / 151 40% 1 13.04.2027 -
Enrico Delprato Parma Active 144 / 152 40% 1 13.04.2027 -
Jayden Bogle Leeds United Active 148 / 151 40% 1 13.04.2027 -
Nicolò Zaniolo Udinese Active 151 / 149 40% 3 11.04.2027 -
Dwight McNeil Crystal Palace Active 135 / 140 40% 1 11.04.2027 -
Petar Musa FC Dallas Active 141 / 128 40% 1 11.04.2027 -
Adrián Bernabé Parma Active 139 / 142 40% 1 10.04.2027 -
Tiago Djaló Besiktas Active 137 / 133 40% 1 10.04.2027 -
André Wolverhampton Active 141 / 143 40% 1 10.04.2027 -
Antoni Milambo Brentford Active 145 / 157 40% 1 09.04.2027 -
Abel Bretones Osasuna Active 140 / 144 40% 3 08.04.2027 -
Morten Frendrup Genoa Active 138 / 127 40% 1 08.04.2027 -
Éderson Atalanta Active 159 / 156 40% 1 08.04.2027 -
Danilo Botafogo Active 135 / 147 40% 2 06.04.2027 -
Arthur Atta Fiorentina Active 139 / 138 40% 1 06.04.2027 -
Tasos Douvikas Como Active 145 / 151 40% 1 06.04.2027 -
Mateo Pellegrino Fiorentina Active 142 / 142 40% 1 06.04.2027 -
Youssef En-Nesyri Al-Ittihad Active 133 / 155 40% 1 06.04.2027 -
Nicolò Cambiaghi Bologna Active 144 / 146 40% 1 05.04.2027 -
Mohamed Belloumi Hull City Active 130 / 129 40% 1 05.04.2027 -
Franculino Brighton Active 131 / 156 40% 2 04.04.2027 -
Mamadou Sangaré Brentford Active 148 / 126 40% 1 04.04.2027 -
Luciano Juba Bahia Active 136 / 131 40% 1 04.04.2027 -
Barış Alper Yılmaz Galatasaray Active 140 / 143 40% 1 04.04.2027 -
Santiago Castro AS Roma Active 150 / 163 40% 2 02.04.2027 -
Eduardo Lozano Botafogo Active 150 / 148 40% 1 02.04.2027 -
Brooke Norton-Cuffy Hull City Active 142 / 141 40% 2 01.04.2027 -
Stanley Mills Oxford United Active 123 / 117 40% 1 01.04.2027 -
Max Johnston Derby County Active 124 / 143 40% 1 01.04.2027 -
Álex Valle Como Active 136 / 144 40% 1 31.03.2027 -
Yoan Bonny Inter Active 143 / 155 40% 1 31.03.2027 -
Vitor Roque Palmeiras Active 141 / 147 40% 2 30.03.2027 -
Jens Odgaard Juventus Active 144 / 132 40% 1 30.03.2027 -
Joel Pereira Reading Active 108 / 113 40% 1 30.03.2027 -
James Trafford Leeds United Active 136 / 145 40% 1 30.03.2027 -
Léo Jardim Vasco da Gama Active 130 / 141 40% 1 30.03.2027 -
Carlos Forbs Club Brugge Active 134 / 140 40% 3 28.03.2027 -
Salvador Blopá Sporting CP Active 111 / 122 40% 1 28.03.2027 -
Iván Fresneda Sporting CP Active 141 / 147 40% 5 27.03.2027 -
Joshua Zirkzee Manchester United Active 143 / 130 40% 2 27.03.2027 -
Kerem Aktürkoğlu Fenerbahce Active 151 / 133 40% 1 27.03.2027 -
Kwadwo Baah Watford Active 125 / 134 40% 1 27.03.2027 -
Rodrigo Pinheiro Famalicao Active 138 / 117 40% 1 27.03.2027 -
João Gonçalves Oliveirense Active 115 / 119 40% 3 25.03.2027 -
Álex Remiro KAA Gent Active 154 / 136 40% 1 25.03.2027 -
Pau Víctor Braga Active 143 / 131 40% 1 25.03.2027 -
Steven Bergwijn Al-Ittihad Active 148 / 157 40% 1 25.03.2027 -
João Félix Dinamo Moscow Active 168 / 146 40% 1 25.03.2027 -
Dodi Lukébakio Benfica Active 155 / 133 40% 1 24.03.2027 -
Soufiane Rahimi Al Ain Active 131 / 149 40% 1 24.03.2027 -
Abbosbek Fayzullayev Basaksehir Active 130 / 148 40% 1 23.03.2027 -
Tunde AVS Active 106 / 118 40% 1 23.03.2027 -
Joe Gelhardt Hull City Active 126 / 140 40% 1 23.03.2027 -
Eduardo Quaresma Sporting CP Active 134 / 145 40% 2 22.03.2027 -
Dango Ouattara Brentford Active 157 / 154 40% 1 22.03.2027 -
Eddie Nketiah Crystal Palace Active 139 / 156 40% 1 22.03.2027 -
Leandro Barreiro Benfica Active 146 / 148 40% 1 22.03.2027 -
João Valido Chaves Active 107 / 124 40% 3 20.03.2027 -
Joan Femenías Penafiel Active 124 / 116 40% 2 20.03.2027 -
Andrea Pinamonti Lazio Active 127 / 134 40% 1 20.03.2027 -
Noah Okafor Leeds United Active 141 / 129 40% 1 20.03.2027 -
Joe Lumley Sheffield Wednesday Active 116 / 108 40% 1 20.03.2027 -
Antonino Gallo Lecce Active 141 / 125 40% 1 20.03.2027 -
Bart Verbruggen Brighton Active 150 / 161 40% 3 18.03.2027 -
Juan Soriano Académico de Viseu Active 124 / 109 40% 4 18.03.2027 -
Samuel Soares Benfica Active 128 / 133 40% 2 18.03.2027 -
Bongani Zungu Ajax Cape Town Active 138 / 136 40% 2 18.03.2027 -
Andreas Schjelderup Benfica Active 146 / 137 40% 1 18.03.2027 -
Mohamed-Ali Cho Hull City Active 140 / 119 40% 1 18.03.2027 -
Sam Tickle Wigan Athletic Active 130 / 126 40% 1 16.03.2027 -
Jordan Pickford Everton Active 163 / 151 40% 1 15.03.2027 -
Adriel Torreense Active 115 / 117 40% 3 14.03.2027 -
Matheus Mendes Alverca Active 124 / 113 40% 1 14.03.2027 -
Alexander Nübel Besiktas Active 158 / 138 40% 1 14.03.2027 -
Zeno Debast Sporting CP Active 137 / 145 40% 2 10.03.2027 -
Shea Charles Southampton Active 129 / 124 40% 1 10.03.2027 -
Lazar Carević Famalicao Active 141 / 118 40% 3 09.03.2027 -
Cezary Miszta Rio Ave Active 132 / 137 40% 3 09.03.2027 -
Cláudio Ramos Porto Active 128 / 124 40% 1 09.03.2027 -
William Gomes Porto Active 151 / 128 40% 2 08.03.2027 -
Taichi Fukui Arouca Active 115 / 124 40% 2 06.03.2027 -
Gabri Veiga Porto Active 151 / 161 40% 1 06.03.2027 -
Tony Strata Vitoria Guimaraes Active 127 / 107 40% 2 05.03.2027 -
Assane Diao Como Active 137 / 135 40% 1 05.03.2027 -
Lee Hyun-Ju Arouca Active 119 / 115 40% 1 05.03.2027 -
Samuel Portugal Gil Vicente Active 116 / 123 40% 4 03.03.2027 -
Caio Secco Leixões Active 122 / 100 40% 3 03.03.2027 -
Sébastien Cibois Portimonense Active 107 / 102 40% 2 01.03.2027 -
Gonçalo Tabuaço Maritimo Active 100 / 100 40% 2 01.03.2027 -
Alberto Costa Porto Active 155 / 143 40% 6 27.02.2027 -
Francisco Meixedo Feirense Active 123 / 124 40% 4 25.02.2027 -
Jakub Stolarczyk Leicester City Active 145 / 139 40% 2 25.02.2027 -
Anthony Patterson Wrexham Active 140 / 116 40% 1 23.02.2027 -
Vitinho Botafogo Active 136 / 124 40% 3 19.02.2027 -
Marcos Antonio Sport Recife Active 133 / 137 40% 1 19.02.2027 -
Fabijan Buntić Farense Active 112 / 110 40% 2 18.02.2027 -
Daniel Iversen Preston Active 128 / 132 40% 1 16.02.2027 -
Radek Vítek Middlesbrough Active 141 / 137 40% 1 15.02.2027 -
Nathan Collins Brentford Active 156 / 137 40% 2 13.02.2027 -
Alejandro Balde Barcelona Active 158 / 175 40% 1 13.02.2027 -
Dara O'Shea Ipswich Town Active 145 / 125 40% 1 13.02.2027 -
Roberto Fernández Braga Active 150 / 123 40% 1 12.02.2027 -
Peter Federico Gornik Zabrze Active 119 / 119 40% 1 12.02.2027 -
André Moreira Felgueiras Active 113 / 106 40% 4 07.02.2027 -
Josh Keeley Luton Town Active 122 / 123 40% 2 07.02.2027 -
Nick Pope Newcastle United Active 148 / 124 40% 1 06.02.2027 -
Gabriel Gudmundsson Leeds United Active 150 / 129 40% 1 05.02.2027 -
Gabriel Silva Braga Active 132 / 127 40% 1 04.02.2027 -
Carlos Álvarez Club America Active 144 / 130 40% 1 03.02.2027 -
Tom Fellows Southampton Active 143 / 135 40% 1 03.02.2027 -
Mario Dorgeles Braga Active 135 / 130 40% 1 03.02.2027 -
Mathias De Amorim Famalicao Active 130 / 143 40% 2 02.02.2027 -
Luís Guilherme Sporting CP Active 130 / 141 40% 1 02.02.2027 -
Brian Gutiérrez Guadalajara Active 136 / 139 40% 1 01.02.2027 -
Raúl Rangel Braga Active 132 / 132 40% 2 26.01.2027 -
Esteban Andrada Monterrey Active 124 / 125 40% 1 26.01.2027 -
Joel Robles Estoril Praia Active 117 / 111 40% 1 25.01.2027 -
Diogo Costa Lazio Active 161 / 166 40% 3 22.01.2027 -
Gabriel Brazão Santos Active 142 / 122 40% 1 22.01.2027 -
Patrick Sequeira Casa Pia Active 117 / 132 40% 1 19.01.2027 -
Tiago Volpi Bragantino Active 129 / 129 40% 1 10.01.2027 -
Caoimhin Kelleher Brentford Active 160 / 142 40% 1 10.01.2027 -
Vitor Hugo Lusitânia Lourosa Active 96 / 112 40% 1 09.01.2027 -
Bernd Leno Fulham Active 150 / 149 40% 1 07.01.2027 -
Hugo Souza Corinthians Active 144 / 138 40% 1 07.01.2027 -
Vinicius Zanocelo Ceará Active 129 / 116 72% 1 14.12.2026 Approve
Caio Alexandre Bahia Active 143 / 141 40% 2 26.11.2026 -
Jacob Greaves Ipswich Town Active 135 / 137 40% 2 26.11.2026 -
Gustaf Lagerbielke Braga Active 138 / 145 40% 4 26.11.2026 -
Santiago Ramos Mingo Bahia Active 140 / 133 40% 2 24.11.2026 -
Alexandro Bernabei Internacional Active 133 / 126 40% 1 24.11.2026 -
Keane Lewis-Potter Brentford Active 143 / 150 40% 1 20.11.2026 -
Sikou Niakaté Braga Active 129 / 146 40% 3 18.11.2026 -
Gedson Fernandes Spartak Moscow Active 140 / 154 40% 1 18.11.2026 -
Jean-Baptiste Gorby Braga Active 121 / 115 40% 3 07.11.2026 -
Enzo Barrenechea Benfica Active 151 / 159 40% 2 02.11.2026 -
Francisco Moura Porto Active 134 / 120 40% 1 02.11.2026 -
Ousmane Diomande Nottingham Forest Active 148 / 142 40% 2 31.10.2026 -
Samuel Dahl Benfica Active 137 / 132 40% 1 28.10.2026 -
Bright Arrey-Mbi Braga Active 125 / 121 40% 3 19.10.2026 -
Tomás Araújo Benfica Rejected 148 / 160 40% 1 19.10.2026 -
Yehor Yarmoliuk Brentford Active 151 / 142 40% 1 18.10.2026 -
Kevin Álvarez Club America Active 134 / 120 40% 1 13.10.2026 -
Maximiliano Araújo Sporting CP Active 147 / 157 40% 1 13.10.2026 -
Michael Kayode Brentford Active 138 / 143 40% 1 09.10.2026 -
Martim Fernandes Porto Active 137 / 152 40% 1 09.10.2026 -
Giuliano Simeone Atlético Madrid Active 149 / 152 40% 1 06.08.2026 -
Adrian Bajrami Braga Active 110 / 135 40% 1 04.08.2026 -
Alex Scott Bournemouth Active 138 / 141 40% 1 01.08.2026 -
Beni Mukendi Vitoria Guimaraes Active 124 / 105 40% 1 01.08.2026 -